Terminal Aerodrome Forecast
Issued by NWS

Home | Current Version | Previous Version | Text Only | Print | Product List | Glossary On
Versions: 1 2 3 4 5 6 7 8 9 10 11 12 13 14 15 16 17 18 19 20 21 22 23 24 25 26 27 28 29 30 31 32
000
FTUS43 KGRB 261331 AAA
TAFRHI
TAF AMD
KRHI 261331Z 2614/2712 22005KT P6SM BKN006 BKN090
      TEMPO 2614/2615 5SM -SHRA BR SCT006 BKN090
     FM261500 24004KT 5SM -SHRA BR SCT007 OVC012
      TEMPO 2615/2617 BKN007
     FM261900 27010G17KT P6SM SCT012 OVC020
      TEMPO 2702/2706 BKN012
     FM270600 30008KT P6SM BKN006=

USA.gov is the U.S. government's official web portal to all federal, state and local government web resources and services.